sensor_id;sensor_type;location;lat;lon;timestamp;temperature;humidity
40255;DHT22;25973;52.368;4.940;2022-12-18T00:01:02;-1.20;99.90
40255;DHT22;25973;52.368;4.940;2022-12-18T00:03:35;-1.30;99.90
40255;DHT22;25973;52.368;4.940;2022-12-18T00:06:01;-1.20;99.90
40255;DHT22;25973;52.368;4.940;2022-12-18T00:08:27;-1.20;99.90
40255;DHT22;25973;52.368;4.940;2022-12-18T00:10:53;-1.20;99.90
40255;DHT22;25973;52.368;4.940;2022-12-18T00:13:19;-1.20;99.90
40255;DHT22;25973;52.368;4.940;2022-12-18T00:15:44;-1.20;99.90
40255;DHT22;25973;52.368;4.940;2022-12-18T00:18:10;-1.20;99.90
40255;DHT22;25973;52.368;4.940;2022-12-18T00:20:37;-1.20;99.90
40255;DHT22;25973;52.368;4.940;2022-12-18T00:23:03;-1.20;99.90
40255;DHT22;25973;52.368;4.940;2022-12-18T00:25:29;-1.20;99.90
40255;DHT22;25973;52.368;4.940;2022-12-18T00:27:57;-1.30;99.90
40255;DHT22;25973;52.368;4.940;2022-12-18T00:30:22;-1.30;99.90
40255;DHT22;25973;52.368;4.940;2022-12-18T00:32:48;-1.30;99.90
40255;DHT22;25973;52.368;4.940;2022-12-18T00:35:14;-1.40;99.90
40255;DHT22;25973;52.368;4.940;2022-12-18T00:37:39;-1.40;99.90
40255;DHT22;25973;52.368;4.940;2022-12-18T00:40:05;-1.40;99.90
40255;DHT22;25973;52.368;4.940;2022-12-18T00:42:31;-1.50;99.90
40255;DHT22;25973;52.368;4.940;2022-12-18T00:45:15;-1.50;99.90
40255;DHT22;25973;52.368;4.940;2022-12-18T00:47:41;-1.50;99.90
40255;DHT22;25973;52.368;4.940;2022-12-18T00:50:07;-1.60;99.90
40255;DHT22;25973;52.368;4.940;2022-12-18T00:52:32;-1.60;99.90
40255;DHT22;25973;52.368;4.940;2022-12-18T00:54:58;-1.70;99.90
40255;DHT22;25973;52.368;4.940;2022-12-18T00:57:23;-1.70;99.90
40255;DHT22;25973;52.368;4.940;2022-12-18T00:59:49;-1.70;99.90
40255;DHT22;25973;52.368;4.940;2022-12-18T01:02:14;-1.80;99.90
40255;DHT22;25973;52.368;4.940;2022-12-18T01:04:40;-1.70;99.90
40255;DHT22;25973;52.368;4.940;2022-12-18T01:07:06;-1.70;99.90
40255;DHT22;25973;52.368;4.940;2022-12-18T01:09:31;-1.70;99.90
40255;DHT22;25973;52.368;4.940;2022-12-18T01:12:00;-1.70;99.90
40255;DHT22;25973;52.368;4.940;2022-12-18T01:14:25;-1.70;99.90
40255;DHT22;25973;52.368;4.940;2022-12-18T01:16:51;-1.70;99.90
40255;DHT22;25973;52.368;4.940;2022-12-18T01:19:17;-1.70;99.90
40255;DHT22;25973;52.368;4.940;2022-12-18T01:21:42;-1.60;99.90
40255;DHT22;25973;52.368;4.940;2022-12-18T01:24:11;-1.60;99.90
40255;DHT22;25973;52.368;4.940;2022-12-18T01:26:37;-1.50;99.90
40255;DHT22;25973;52.368;4.940;2022-12-18T01:29:02;-1.50;99.90
40255;DHT22;25973;52.368;4.940;2022-12-18T01:31:32;-1.50;99.90
40255;DHT22;25973;52.368;4.940;2022-12-18T01:34:00;-1.60;99.90
40255;DHT22;25973;52.368;4.940;2022-12-18T01:36:29;-1.50;99.90
40255;DHT22;25973;52.368;4.940;2022-12-18T01:38:55;-1.50;99.90
40255;DHT22;25973;52.368;4.940;2022-12-18T01:41:24;-1.50;99.90
40255;DHT22;25973;52.368;4.940;2022-12-18T01:43:56;-1.50;99.90
40255;DHT22;25973;52.368;4.940;2022-12-18T01:46:26;-1.60;99.90
40255;DHT22;25973;52.368;4.940;2022-12-18T01:49:00;-1.50;99.90
40255;DHT22;25973;52.368;4.940;2022-12-18T01:51:27;-1.60;99.90
40255;DHT22;25973;52.368;4.940;2022-12-18T01:53:53;-1.50;99.90
40255;DHT22;25973;52.368;4.940;2022-12-18T01:56:20;-1.60;99.90
40255;DHT22;25973;52.368;4.940;2022-12-18T01:59:06;-1.60;99.90
40255;DHT22;25973;52.368;4.940;2022-12-18T02:01:33;-1.60;99.90
40255;DHT22;25973;52.368;4.940;2022-12-18T02:04:23;-1.70;99.90
40255;DHT22;25973;52.368;4.940;2022-12-18T02:09:53;-1.70;99.90
40255;DHT22;25973;52.368;4.940;2022-12-18T02:12:27;-1.70;99.90
40255;DHT22;25973;52.368;4.940;2022-12-18T02:17:50;-1.70;99.90
40255;DHT22;25973;52.368;4.940;2022-12-18T02:20:25;-1.60;99.90
40255;DHT22;25973;52.368;4.940;2022-12-18T02:26:15;-1.70;99.90
40255;DHT22;25973;52.368;4.940;2022-12-18T02:31:49;-1.90;99.90
40255;DHT22;25973;52.368;4.940;2022-12-18T02:34:17;-1.90;99.90
40255;DHT22;25973;52.368;4.940;2022-12-18T02:36:44;-1.90;99.90
40255;DHT22;25973;52.368;4.940;2022-12-18T02:39:11;-1.90;99.90
40255;DHT22;25973;52.368;4.940;2022-12-18T02:41:38;-2.00;99.90
40255;DHT22;25973;52.368;4.940;2022-12-18T02:44:09;-2.10;99.90
40255;DHT22;25973;52.368;4.940;2022-12-18T02:46:44;-2.10;99.90
40255;DHT22;25973;52.368;4.940;2022-12-18T02:49:28;-2.00;99.90
40255;DHT22;25973;52.368;4.940;2022-12-18T02:52:17;-2.10;99.90
40255;DHT22;25973;52.368;4.940;2022-12-18T02:54:52;-2.20;99.90
40255;DHT22;25973;52.368;4.940;2022-12-18T02:57:58;-2.20;99.90
40255;DHT22;25973;52.368;4.940;2022-12-18T03:00:39;-2.20;99.90
40255;DHT22;25973;52.368;4.940;2022-12-18T03:03:17;-2.20;99.90
40255;DHT22;25973;52.368;4.940;2022-12-18T03:05:58;-2.30;99.90
40255;DHT22;25973;52.368;4.940;2022-12-18T03:08:28;-2.20;99.90
40255;DHT22;25973;52.368;4.940;2022-12-18T03:11:13;-2.20;99.90
40255;DHT22;25973;52.368;4.940;2022-12-18T03:13:51;-2.20;99.90
40255;DHT22;25973;52.368;4.940;2022-12-18T03:16:22;-2.30;99.90
40255;DHT22;25973;52.368;4.940;2022-12-18T03:18:56;-2.20;99.90
40255;DHT22;25973;52.368;4.940;2022-12-18T03:21:28;-2.20;99.90
40255;DHT22;25973;52.368;4.940;2022-12-18T03:23:56;-2.20;99.90
40255;DHT22;25973;52.368;4.940;2022-12-18T03:26:24;-2.30;99.90
40255;DHT22;25973;52.368;4.940;2022-12-18T03:28:57;-2.30;99.90
40255;DHT22;25973;52.368;4.940;2022-12-18T03:31:26;-2.30;99.90
40255;DHT22;25973;52.368;4.940;2022-12-18T03:33:56;-2.30;99.90
40255;DHT22;25973;52.368;4.940;2022-12-18T03:36:23;-2.30;99.90
40255;DHT22;25973;52.368;4.940;2022-12-18T03:38:49;-2.40;99.90
40255;DHT22;25973;52.368;4.940;2022-12-18T03:41:43;-2.40;99.90
40255;DHT22;25973;52.368;4.940;2022-12-18T03:45:02;-2.30;99.90
40255;DHT22;25973;52.368;4.940;2022-12-18T03:50:47;-2.20;99.90
40255;DHT22;25973;52.368;4.940;2022-12-18T03:53:25;-2.20;99.90
40255;DHT22;25973;52.368;4.940;2022-12-18T03:55:52;-2.20;99.90
40255;DHT22;25973;52.368;4.940;2022-12-18T03:58:21;-2.20;99.90
40255;DHT22;25973;52.368;4.940;2022-12-18T04:00:49;-2.10;99.90
40255;DHT22;25973;52.368;4.940;2022-12-18T04:03:18;-2.10;99.90
40255;DHT22;25973;52.368;4.940;2022-12-18T04:05:45;-2.20;99.90
40255;DHT22;25973;52.368;4.940;2022-12-18T04:08:12;-2.30;99.90
40255;DHT22;25973;52.368;4.940;2022-12-18T04:10:38;-2.30;99.90
40255;DHT22;25973;52.368;4.940;2022-12-18T04:13:04;-2.50;99.90
40255;DHT22;25973;52.368;4.940;2022-12-18T04:15:29;-2.50;99.90
40255;DHT22;25973;52.368;4.940;2022-12-18T04:17:56;-2.50;99.90
40255;DHT22;25973;52.368;4.940;2022-12-18T04:20:22;-2.60;99.90
40255;DHT22;25973;52.368;4.940;2022-12-18T04:22:47;-2.60;99.90
40255;DHT22;25973;52.368;4.940;2022-12-18T04:25:13;-2.60;99.90
40255;DHT22;25973;52.368;4.940;2022-12-18T04:27:39;-2.60;99.90
40255;DHT22;25973;52.368;4.940;2022-12-18T04:30:05;-2.60;99.90
40255;DHT22;25973;52.368;4.940;2022-12-18T04:32:31;-2.60;99.90
40255;DHT22;25973;52.368;4.940;2022-12-18T04:34:58;-2.60;99.90
40255;DHT22;25973;52.368;4.940;2022-12-18T04:37:23;-2.50;99.90
40255;DHT22;25973;52.368;4.940;2022-12-18T04:39:49;-2.50;99.90
40255;DHT22;25973;52.368;4.940;2022-12-18T04:42:14;-2.50;99.90
40255;DHT22;25973;52.368;4.940;2022-12-18T04:44:40;-2.50;99.90
40255;DHT22;25973;52.368;4.940;2022-12-18T04:47:05;-2.40;99.90
40255;DHT22;25973;52.368;4.940;2022-12-18T04:49:31;-2.40;99.90
40255;DHT22;25973;52.368;4.940;2022-12-18T04:51:59;-2.40;99.90
40255;DHT22;25973;52.368;4.940;2022-12-18T04:54:25;-2.40;99.90
40255;DHT22;25973;52.368;4.940;2022-12-18T04:56:50;-2.40;99.90
40255;DHT22;25973;52.368;4.940;2022-12-18T04:59:16;-2.40;99.90
40255;DHT22;25973;52.368;4.940;2022-12-18T05:01:41;-2.40;99.90
40255;DHT22;25973;52.368;4.940;2022-12-18T05:04:07;-2.40;99.90
40255;DHT22;25973;52.368;4.940;2022-12-18T05:06:33;-2.40;99.90
40255;DHT22;25973;52.368;4.940;2022-12-18T05:08:58;-2.40;99.90
40255;DHT22;25973;52.368;4.940;2022-12-18T05:11:24;-2.40;99.90
40255;DHT22;25973;52.368;4.940;2022-12-18T05:13:49;-2.40;99.90
40255;DHT22;25973;52.368;4.940;2022-12-18T05:16:15;-2.50;99.90
40255;DHT22;25973;52.368;4.940;2022-12-18T05:18:41;-2.50;99.90
40255;DHT22;25973;52.368;4.940;2022-12-18T05:21:07;-2.50;99.90
40255;DHT22;25973;52.368;4.940;2022-12-18T05:23:35;-2.50;99.90
40255;DHT22;25973;52.368;4.940;2022-12-18T05:26:04;-2.50;99.90
40255;DHT22;25973;52.368;4.940;2022-12-18T05:28:31;-2.50;99.90
40255;DHT22;25973;52.368;4.940;2022-12-18T05:30:59;-2.50;99.90
40255;DHT22;25973;52.368;4.940;2022-12-18T05:33:27;-2.50;99.90
40255;DHT22;25973;52.368;4.940;2022-12-18T05:35:58;-2.40;99.90
40255;DHT22;25973;52.368;4.940;2022-12-18T05:38:28;-2.50;99.90
40255;DHT22;25973;52.368;4.940;2022-12-18T05:40:54;-2.40;99.90
40255;DHT22;25973;52.368;4.940;2022-12-18T05:43:22;-2.50;99.90
40255;DHT22;25973;52.368;4.940;2022-12-18T05:45:48;-2.50;99.90
40255;DHT22;25973;52.368;4.940;2022-12-18T05:48:14;-2.50;99.90
40255;DHT22;25973;52.368;4.940;2022-12-18T05:50:42;-2.60;99.90
40255;DHT22;25973;52.368;4.940;2022-12-18T05:53:08;-2.70;99.90
40255;DHT22;25973;52.368;4.940;2022-12-18T05:55:35;-2.70;99.90
40255;DHT22;25973;52.368;4.940;2022-12-18T05:58:02;-2.70;99.90
40255;DHT22;25973;52.368;4.940;2022-12-18T06:00:28;-2.80;99.90
40255;DHT22;25973;52.368;4.940;2022-12-18T06:02:54;-2.90;99.90
40255;DHT22;25973;52.368;4.940;2022-12-18T06:05:20;-2.90;99.90
40255;DHT22;25973;52.368;4.940;2022-12-18T06:07:45;-3.00;99.90
40255;DHT22;25973;52.368;4.940;2022-12-18T06:10:11;-3.00;99.90
40255;DHT22;25973;52.368;4.940;2022-12-18T06:12:37;-3.10;99.90
40255;DHT22;25973;52.368;4.940;2022-12-18T06:15:03;-3.10;99.90
40255;DHT22;25973;52.368;4.940;2022-12-18T06:17:30;-3.20;99.90
40255;DHT22;25973;52.368;4.940;2022-12-18T06:19:59;-3.20;99.90
40255;DHT22;25973;52.368;4.940;2022-12-18T06:22:24;-3.20;99.90
40255;DHT22;25973;52.368;4.940;2022-12-18T06:24:50;-3.20;99.90
40255;DHT22;25973;52.368;4.940;2022-12-18T06:27:16;-3.10;99.90
40255;DHT22;25973;52.368;4.940;2022-12-18T06:29:42;-3.20;99.90
40255;DHT22;25973;52.368;4.940;2022-12-18T06:32:07;-3.30;99.90
40255;DHT22;25973;52.368;4.940;2022-12-18T06:34:33;-3.30;99.90
40255;DHT22;25973;52.368;4.940;2022-12-18T06:36:59;-3.40;99.90
40255;DHT22;25973;52.368;4.940;2022-12-18T06:39:27;-3.40;99.90
40255;DHT22;25973;52.368;4.940;2022-12-18T06:41:53;-3.40;99.90
40255;DHT22;25973;52.368;4.940;2022-12-18T06:44:18;-3.40;99.90
40255;DHT22;25973;52.368;4.940;2022-12-18T06:46:44;-3.50;99.90
40255;DHT22;25973;52.368;4.940;2022-12-18T06:49:09;-3.60;99.90
40255;DHT22;25973;52.368;4.940;2022-12-18T06:51:35;-3.60;99.90
40255;DHT22;25973;52.368;4.940;2022-12-18T06:54:01;-3.70;99.90
40255;DHT22;25973;52.368;4.940;2022-12-18T06:56:27;-3.70;99.90
40255;DHT22;25973;52.368;4.940;2022-12-18T06:58:53;-3.70;99.90
40255;DHT22;25973;52.368;4.940;2022-12-18T07:01:18;-3.70;99.90
40255;DHT22;25973;52.368;4.940;2022-12-18T07:03:44;-3.70;99.90
40255;DHT22;25973;52.368;4.940;2022-12-18T07:06:14;-3.70;99.90
40255;DHT22;25973;52.368;4.940;2022-12-18T07:08:40;-3.70;99.90
40255;DHT22;25973;52.368;4.940;2022-12-18T07:11:06;-3.70;99.90
40255;DHT22;25973;52.368;4.940;2022-12-18T07:13:31;-3.70;99.90
40255;DHT22;25973;52.368;4.940;2022-12-18T07:16:07;-3.60;99.90
40255;DHT22;25973;52.368;4.940;2022-12-18T07:18:34;-3.70;99.90
40255;DHT22;25973;52.368;4.940;2022-12-18T07:21:03;-3.60;99.90
40255;DHT22;25973;52.368;4.940;2022-12-18T07:23:29;-3.60;99.90
40255;DHT22;25973;52.368;4.940;2022-12-18T07:25:55;-3.50;99.90
40255;DHT22;25973;52.368;4.940;2022-12-18T07:28:21;-3.50;99.90
40255;DHT22;25973;52.368;4.940;2022-12-18T07:30:46;-3.50;99.90
40255;DHT22;25973;52.368;4.940;2022-12-18T07:33:12;-3.40;99.90
40255;DHT22;25973;52.368;4.940;2022-12-18T07:35:37;-3.40;99.90
40255;DHT22;25973;52.368;4.940;2022-12-18T07:38:03;-3.40;99.90
40255;DHT22;25973;52.368;4.940;2022-12-18T07:40:28;-3.40;99.90
40255;DHT22;25973;52.368;4.940;2022-12-18T07:42:54;-3.40;99.90
40255;DHT22;25973;52.368;4.940;2022-12-18T07:45:19;-3.40;99.90
40255;DHT22;25973;52.368;4.940;2022-12-18T07:47:45;-3.50;99.90
40255;DHT22;25973;52.368;4.940;2022-12-18T07:50:10;-3.50;99.90
40255;DHT22;25973;52.368;4.940;2022-12-18T07:52:36;-3.50;99.90
40255;DHT22;25973;52.368;4.940;2022-12-18T07:55:02;-3.50;99.90
40255;DHT22;25973;52.368;4.940;2022-12-18T07:57:28;-3.50;99.90
40255;DHT22;25973;52.368;4.940;2022-12-18T07:59:53;-3.50;99.90
40255;DHT22;25973;52.368;4.940;2022-12-18T08:02:19;-3.50;99.90
40255;DHT22;25973;52.368;4.940;2022-12-18T08:04:44;-3.50;99.90
40255;DHT22;25973;52.368;4.940;2022-12-18T08:07:10;-3.50;99.90
40255;DHT22;25973;52.368;4.940;2022-12-18T08:09:35;-3.40;99.90
40255;DHT22;25973;52.368;4.940;2022-12-18T08:12:01;-3.40;99.90
40255;DHT22;25973;52.368;4.940;2022-12-18T08:14:26;-3.30;99.90
40255;DHT22;25973;52.368;4.940;2022-12-18T08:16:55;-3.30;99.90
40255;DHT22;25973;52.368;4.940;2022-12-18T08:19:20;-3.20;99.90
40255;DHT22;25973;52.368;4.940;2022-12-18T08:21:46;-3.30;99.90
40255;DHT22;25973;52.368;4.940;2022-12-18T08:24:11;-3.20;99.90
40255;DHT22;25973;52.368;4.940;2022-12-18T08:26:37;-3.10;99.90
40255;DHT22;25973;52.368;4.940;2022-12-18T08:29:02;-3.10;99.90
40255;DHT22;25973;52.368;4.940;2022-12-18T08:31:29;-3.00;99.90
40255;DHT22;25973;52.368;4.940;2022-12-18T08:33:56;-3.00;99.90
40255;DHT22;25973;52.368;4.940;2022-12-18T08:36:22;-3.00;99.90
40255;DHT22;25973;52.368;4.940;2022-12-18T08:38:48;-3.00;99.90
40255;DHT22;25973;52.368;4.940;2022-12-18T08:41:16;-2.90;99.90
40255;DHT22;25973;52.368;4.940;2022-12-18T08:43:42;-2.90;99.90
40255;DHT22;25973;52.368;4.940;2022-12-18T08:46:32;-2.90;99.90
40255;DHT22;25973;52.368;4.940;2022-12-18T08:48:57;-2.90;99.90
40255;DHT22;25973;52.368;4.940;2022-12-18T08:51:23;-2.90;99.90
40255;DHT22;25973;52.368;4.940;2022-12-18T08:53:48;-2.90;99.90
40255;DHT22;25973;52.368;4.940;2022-12-18T08:56:15;-2.80;99.90
40255;DHT22;25973;52.368;4.940;2022-12-18T08:58:42;-2.80;99.90
40255;DHT22;25973;52.368;4.940;2022-12-18T09:01:09;-2.80;99.90
40255;DHT22;25973;52.368;4.940;2022-12-18T09:03:36;-2.80;99.90
40255;DHT22;25973;52.368;4.940;2022-12-18T09:06:02;-2.60;99.90
40255;DHT22;25973;52.368;4.940;2022-12-18T09:08:28;-2.60;99.90
40255;DHT22;25973;52.368;4.940;2022-12-18T09:10:54;-2.60;99.90
40255;DHT22;25973;52.368;4.940;2022-12-18T09:13:20;-2.60;99.90
40255;DHT22;25973;52.368;4.940;2022-12-18T09:15:49;-2.60;99.90
40255;DHT22;25973;52.368;4.940;2022-12-18T09:18:17;-2.70;99.90
40255;DHT22;25973;52.368;4.940;2022-12-18T09:20:43;-2.70;99.90
40255;DHT22;25973;52.368;4.940;2022-12-18T09:23:09;-2.60;99.90
40255;DHT22;25973;52.368;4.940;2022-12-18T09:25:35;-2.60;99.90
40255;DHT22;25973;52.368;4.940;2022-12-18T09:28:18;-2.60;99.90
40255;DHT22;25973;52.368;4.940;2022-12-18T09:30:47;-2.60;99.90
40255;DHT22;25973;52.368;4.940;2022-12-18T09:33:12;-2.60;99.90
40255;DHT22;25973;52.368;4.940;2022-12-18T09:35:39;-2.60;99.90
40255;DHT22;25973;52.368;4.940;2022-12-18T09:38:05;-2.60;99.90
40255;DHT22;25973;52.368;4.940;2022-12-18T09:40:39;-2.60;99.90
40255;DHT22;25973;52.368;4.940;2022-12-18T09:43:13;-2.60;99.90
40255;DHT22;25973;52.368;4.940;2022-12-18T09:45:46;-2.60;99.90
40255;DHT22;25973;52.368;4.940;2022-12-18T09:48:21;-2.50;99.90
40255;DHT22;25973;52.368;4.940;2022-12-18T09:50:50;-2.50;99.90
40255;DHT22;25973;52.368;4.940;2022-12-18T09:53:23;-2.40;99.90
40255;DHT22;25973;52.368;4.940;2022-12-18T09:55:50;-2.40;99.90
40255;DHT22;25973;52.368;4.940;2022-12-18T09:58:39;-2.40;99.90
40255;DHT22;25973;52.368;4.940;2022-12-18T10:01:12;-2.40;99.90
40255;DHT22;25973;52.368;4.940;2022-12-18T10:03:41;-2.50;99.90
40255;DHT22;25973;52.368;4.940;2022-12-18T10:06:13;-2.40;99.90
40255;DHT22;25973;52.368;4.940;2022-12-18T10:09:03;-2.40;99.90
40255;DHT22;25973;52.368;4.940;2022-12-18T10:14:27;-2.30;99.90
40255;DHT22;25973;52.368;4.940;2022-12-18T10:19:33;-2.20;99.90
40255;DHT22;25973;52.368;4.940;2022-12-18T10:22:17;-2.10;99.90
40255;DHT22;25973;52.368;4.940;2022-12-18T10:27:26;-2.00;99.90
40255;DHT22;25973;52.368;4.940;2022-12-18T10:29:53;-2.00;99.90
40255;DHT22;25973;52.368;4.940;2022-12-18T10:32:22;-2.00;99.90
40255;DHT22;25973;52.368;4.940;2022-12-18T10:34:51;-1.90;99.90
40255;DHT22;25973;52.368;4.940;2022-12-18T10:37:18;-1.80;99.90
40255;DHT22;25973;52.368;4.940;2022-12-18T10:39:46;-1.80;99.90
40255;DHT22;25973;52.368;4.940;2022-12-18T10:42:18;-1.70;99.90
40255;DHT22;25973;52.368;4.940;2022-12-18T10:44:45;-1.80;99.90
40255;DHT22;25973;52.368;4.940;2022-12-18T10:47:18;-1.70;99.90
40255;DHT22;25973;52.368;4.940;2022-12-18T10:49:50;-1.70;99.90
40255;DHT22;25973;52.368;4.940;2022-12-18T10:52:28;-1.70;99.90
40255;DHT22;25973;52.368;4.940;2022-12-18T10:55:02;-1.60;99.90
40255;DHT22;25973;52.368;4.940;2022-12-18T10:57:39;-1.60;99.90
40255;DHT22;25973;52.368;4.940;2022-12-18T11:00:31;-1.50;99.90
40255;DHT22;25973;52.368;4.940;2022-12-18T11:02:57;-1.40;99.90
40255;DHT22;25973;52.368;4.940;2022-12-18T11:05:30;-1.40;99.90
40255;DHT22;25973;52.368;4.940;2022-12-18T11:07:56;-1.40;99.90
40255;DHT22;25973;52.368;4.940;2022-12-18T11:10:36;-1.40;99.90
40255;DHT22;25973;52.368;4.940;2022-12-18T11:13:23;-1.30;99.90
40255;DHT22;25973;52.368;4.940;2022-12-18T11:15:49;-1.30;99.90
40255;DHT22;25973;52.368;4.940;2022-12-18T11:18:27;-1.30;99.90
40255;DHT22;25973;52.368;4.940;2022-12-18T11:21:20;-1.20;99.90
40255;DHT22;25973;52.368;4.940;2022-12-18T11:23:51;-1.20;99.90
40255;DHT22;25973;52.368;4.940;2022-12-18T11:26:17;-1.10;99.90
40255;DHT22;25973;52.368;4.940;2022-12-18T11:31:29;-1.00;99.90
40255;DHT22;25973;52.368;4.940;2022-12-18T11:33:59;-1.00;99.90
40255;DHT22;25973;52.368;4.940;2022-12-18T11:36:29;-1.00;99.90
40255;DHT22;25973;52.368;4.940;2022-12-18T11:38:59;-1.10;99.90
40255;DHT22;25973;52.368;4.940;2022-12-18T11:41:34;-1.10;99.90
40255;DHT22;25973;52.368;4.940;2022-12-18T11:44:27;-1.00;99.90
40255;DHT22;25973;52.368;4.940;2022-12-18T11:49:44;-1.00;99.90
40255;DHT22;25973;52.368;4.940;2022-12-18T11:52:15;-1.00;99.90
40255;DHT22;25973;52.368;4.940;2022-12-18T11:54:41;-1.00;99.90
40255;DHT22;25973;52.368;4.940;2022-12-18T12:00:16;-1.00;99.90
40255;DHT22;25973;52.368;4.940;2022-12-18T12:03:07;-1.00;99.90
40255;DHT22;25973;52.368;4.940;2022-12-18T12:05:41;-0.90;99.90
40255;DHT22;25973;52.368;4.940;2022-12-18T12:11:02;-0.80;99.90
40255;DHT22;25973;52.368;4.940;2022-12-18T12:16:50;-0.80;99.90
40255;DHT22;25973;52.368;4.940;2022-12-18T12:22:08;-0.60;99.90
40255;DHT22;25973;52.368;4.940;2022-12-18T12:33:16;-0.50;99.90
40255;DHT22;25973;52.368;4.940;2022-12-18T12:38:41;-0.40;99.90
40255;DHT22;25973;52.368;4.940;2022-12-18T12:41:14;-0.30;99.90
40255;DHT22;25973;52.368;4.940;2022-12-18T12:44:04;-0.30;99.90
40255;DHT22;25973;52.368;4.940;2022-12-18T12:46:32;-0.20;99.90
40255;DHT22;25973;52.368;4.940;2022-12-18T12:49:02;-0.20;99.90
40255;DHT22;25973;52.368;4.940;2022-12-18T12:51:35;-0.20;99.90
40255;DHT22;25973;52.368;4.940;2022-12-18T12:54:11;-0.20;99.90
40255;DHT22;25973;52.368;4.940;2022-12-18T12:57:00;-0.20;99.90
40255;DHT22;25973;52.368;4.940;2022-12-18T13:00:02;-0.10;99.90
40255;DHT22;25973;52.368;4.940;2022-12-18T13:08:07;0.00;99.90
40255;DHT22;25973;52.368;4.940;2022-12-18T13:10:37;0.00;99.90
40255;DHT22;25973;52.368;4.940;2022-12-18T13:13:09;0.00;99.90
40255;DHT22;25973;52.368;4.940;2022-12-18T13:20:48;0.00;99.90
40255;DHT22;25973;52.368;4.940;2022-12-18T13:25:48;-0.10;99.90
40255;DHT22;25973;52.368;4.940;2022-12-18T13:28:16;-0.10;99.90
40255;DHT22;25973;52.368;4.940;2022-12-18T13:30:50;-0.10;99.90
40255;DHT22;25973;52.368;4.940;2022-12-18T13:46:21;-0.10;99.90
40255;DHT22;25973;52.368;4.940;2022-12-18T13:49:03;-0.10;99.90
40255;DHT22;25973;52.368;4.940;2022-12-18T13:51:32;0.00;99.90
40255;DHT22;25973;52.368;4.940;2022-12-18T13:56:29;0.00;99.90
40255;DHT22;25973;52.368;4.940;2022-12-18T14:01:29;0.00;99.90
40255;DHT22;25973;52.368;4.940;2022-12-18T14:07:12;0.00;99.90
40255;DHT22;25973;52.368;4.940;2022-12-18T14:09:39;0.00;99.90
40255;DHT22;25973;52.368;4.940;2022-12-18T14:12:11;0.10;99.90
40255;DHT22;25973;52.368;4.940;2022-12-18T14:14:58;0.10;99.90
40255;DHT22;25973;52.368;4.940;2022-12-18T14:17:24;0.00;99.90
40255;DHT22;25973;52.368;4.940;2022-12-18T14:19:51;0.00;99.90
40255;DHT22;25973;52.368;4.940;2022-12-18T14:22:21;0.00;99.90
40255;DHT22;25973;52.368;4.940;2022-12-18T14:27:53;0.00;99.90
40255;DHT22;25973;52.368;4.940;2022-12-18T14:30:27;0.00;99.90
40255;DHT22;25973;52.368;4.940;2022-12-18T14:33:15;0.00;99.90
40255;DHT22;25973;52.368;4.940;2022-12-18T14:36:02;0.10;99.90
40255;DHT22;25973;52.368;4.940;2022-12-18T14:38:33;0.10;99.90
40255;DHT22;25973;52.368;4.940;2022-12-18T14:41:04;0.10;99.90
40255;DHT22;25973;52.368;4.940;2022-12-18T14:43:34;0.10;99.90
40255;DHT22;25973;52.368;4.940;2022-12-18T14:46:01;0.10;99.90
40255;DHT22;25973;52.368;4.940;2022-12-18T14:48:41;0.10;99.90
40255;DHT22;25973;52.368;4.940;2022-12-18T14:53:42;0.00;99.90
40255;DHT22;25973;52.368;4.940;2022-12-18T14:56:20;0.10;99.90
40255;DHT22;25973;52.368;4.940;2022-12-18T14:58:54;0.10;99.90
40255;DHT22;25973;52.368;4.940;2022-12-18T15:01:33;0.10;99.90
40255;DHT22;25973;52.368;4.940;2022-12-18T15:04:00;0.10;99.90
40255;DHT22;25973;52.368;4.940;2022-12-18T15:06:32;0.10;99.90
40255;DHT22;25973;52.368;4.940;2022-12-18T15:09:02;0.10;99.90
40255;DHT22;25973;52.368;4.940;2022-12-18T15:14:32;0.20;99.90
40255;DHT22;25973;52.368;4.940;2022-12-18T15:16:59;0.20;99.90
40255;DHT22;25973;52.368;4.940;2022-12-18T15:19:41;0.30;99.90
40255;DHT22;25973;52.368;4.940;2022-12-18T15:22:37;0.30;99.90
40255;DHT22;25973;52.368;4.940;2022-12-18T15:25:19;0.40;99.90
40255;DHT22;25973;52.368;4.940;2022-12-18T15:27:49;0.40;99.90
40255;DHT22;25973;52.368;4.940;2022-12-18T15:32:41;0.40;99.90
40255;DHT22;25973;52.368;4.940;2022-12-18T15:37:36;0.40;99.90
40255;DHT22;25973;52.368;4.940;2022-12-18T15:40:11;0.40;99.90
40255;DHT22;25973;52.368;4.940;2022-12-18T15:42:37;0.40;99.90
40255;DHT22;25973;52.368;4.940;2022-12-18T15:45:21;0.40;99.90
40255;DHT22;25973;52.368;4.940;2022-12-18T15:47:46;0.40;99.90
40255;DHT22;25973;52.368;4.940;2022-12-18T15:50:12;0.40;99.90
40255;DHT22;25973;52.368;4.940;2022-12-18T15:52:44;0.40;99.90
40255;DHT22;25973;52.368;4.940;2022-12-18T15:55:22;0.40;99.90
40255;DHT22;25973;52.368;4.940;2022-12-18T15:58:08;0.40;99.90
40255;DHT22;25973;52.368;4.940;2022-12-18T16:00:35;0.40;99.90
40255;DHT22;25973;52.368;4.940;2022-12-18T16:03:02;0.50;99.90
40255;DHT22;25973;52.368;4.940;2022-12-18T16:05:28;0.50;99.90
40255;DHT22;25973;52.368;4.940;2022-12-18T16:07:54;0.60;99.90
40255;DHT22;25973;52.368;4.940;2022-12-18T16:10:20;0.60;99.90
40255;DHT22;25973;52.368;4.940;2022-12-18T16:12:46;0.60;99.90
40255;DHT22;25973;52.368;4.940;2022-12-18T16:15:15;0.60;99.90
40255;DHT22;25973;52.368;4.940;2022-12-18T16:17:42;0.70;99.90
40255;DHT22;25973;52.368;4.940;2022-12-18T16:20:20;0.70;99.90
40255;DHT22;25973;52.368;4.940;2022-12-18T16:22:47;0.70;99.90
40255;DHT22;25973;52.368;4.940;2022-12-18T16:25:25;0.70;99.90
40255;DHT22;25973;52.368;4.940;2022-12-18T16:27:52;0.70;99.90
40255;DHT22;25973;52.368;4.940;2022-12-18T16:30:21;0.70;99.90
40255;DHT22;25973;52.368;4.940;2022-12-18T16:32:47;0.70;99.90
40255;DHT22;25973;52.368;4.940;2022-12-18T16:35:14;0.70;99.90
40255;DHT22;25973;52.368;4.940;2022-12-18T16:37:40;0.80;99.90
40255;DHT22;25973;52.368;4.940;2022-12-18T16:40:08;0.80;99.90
40255;DHT22;25973;52.368;4.940;2022-12-18T16:42:35;0.70;99.90
40255;DHT22;25973;52.368;4.940;2022-12-18T16:45:01;0.80;99.90
40255;DHT22;25973;52.368;4.940;2022-12-18T16:47:27;0.80;99.90
40255;DHT22;25973;52.368;4.940;2022-12-18T16:49:52;0.80;99.90
40255;DHT22;25973;52.368;4.940;2022-12-18T16:52:19;0.80;99.90
40255;DHT22;25973;52.368;4.940;2022-12-18T16:54:45;0.80;99.90
40255;DHT22;25973;52.368;4.940;2022-12-18T16:57:13;0.90;99.90
40255;DHT22;25973;52.368;4.940;2022-12-18T16:59:41;0.80;99.90
40255;DHT22;25973;52.368;4.940;2022-12-18T17:02:14;0.80;99.90
40255;DHT22;25973;52.368;4.940;2022-12-18T17:04:40;0.80;99.90
40255;DHT22;25973;52.368;4.940;2022-12-18T17:07:06;0.80;99.90
40255;DHT22;25973;52.368;4.940;2022-12-18T17:09:32;0.80;99.90
40255;DHT22;25973;52.368;4.940;2022-12-18T17:11:58;0.80;99.90
40255;DHT22;25973;52.368;4.940;2022-12-18T17:14:24;0.80;99.90
40255;DHT22;25973;52.368;4.940;2022-12-18T17:16:53;0.80;99.90
40255;DHT22;25973;52.368;4.940;2022-12-18T17:19:19;0.80;99.90
40255;DHT22;25973;52.368;4.940;2022-12-18T17:21:48;0.90;99.90
40255;DHT22;25973;52.368;4.940;2022-12-18T17:24:14;0.90;99.90
40255;DHT22;25973;52.368;4.940;2022-12-18T17:26:40;0.80;99.90
40255;DHT22;25973;52.368;4.940;2022-12-18T17:29:06;0.80;99.90
40255;DHT22;25973;52.368;4.940;2022-12-18T17:31:32;0.90;99.90